Time,TemperatureF,DewpointF,PressureIn,WindDirection,WindDirectionDegrees,WindSpeedMPH,WindSpeedGustMPH,Humidity,HourlyPrecipIn,Conditions,Clouds,dailyrainin,SoftwareType,DateUTC
2013-09-14 00:12:00,58.5,57.9,29.73,South,180,1.1,-999.0,98,-99.99,,,0.00,Acu-Link.com,2013-09-14 04:12:00,
2013-09-14 00:29:00,57.7,57.1,29.73,West,270,1.1,-999.0,98,-99.99,,,0.00,Acu-Link.com,2013-09-14 04:29:00,
2013-09-14 00:49:00,57.4,56.8,29.73,NE,45,1.7,-999.0,98,-99.99,,,0.00,Acu-Link.com,2013-09-14 04:49:00,
2013-09-14 01:04:00,57.2,56.6,29.73,NW,315,0.0,-999.0,98,-99.99,,,0.00,Acu-Link.com,2013-09-14 05:04:00,
2013-09-14 01:23:00,57.2,56.6,29.73,NE,45,2.7,-999.0,98,-99.99,,,0.00,Acu-Link.com,2013-09-14 05:23:00,
2013-09-14 01:38:00,57.0,56.4,29.73,East,90,0.0,-999.0,98,-99.99,,,0.00,Acu-Link.com,2013-09-14 05:38:00,
2013-09-14 01:54:00,56.1,55.5,29.73,ENE,67,0.0,-999.0,98,-99.99,,,0.00,Acu-Link.com,2013-09-14 05:54:00,
2013-09-14 02:09:00,55.2,54.6,29.73,SSE,157,0.0,-999.0,98,-99.99,,,0.00,Acu-Link.com,2013-09-14 06:09:00,
2013-09-14 02:24:00,54.9,54.3,29.73,NNE,22,0.0,-999.0,98,-99.99,,,0.00,Acu-Link.com,2013-09-14 06:24:00,
2013-09-14 02:40:00,55.4,54.8,29.73,West,270,2.7,-999.0,98,-99.99,,,0.00,Acu-Link.com,2013-09-14 06:40:00,
2013-09-14 02:55:00,55.0,54.4,29.74,West,270,1.7,-999.0,98,-99.99,,,0.00,Acu-Link.com,2013-09-14 06:55:00,
2013-09-14 03:14:00,54.9,54.3,29.74,NNE,22,0.0,-999.0,98,-99.99,,,0.00,Acu-Link.com,2013-09-14 07:14:00,
2013-09-14 03:30:00,55.2,54.6,29.74,SSE,157,0.0,-999.0,98,-99.99,,,0.00,Acu-Link.com,2013-09-14 07:30:00,
2013-09-14 03:45:00,54.1,53.5,29.74,WNW,292,0.0,-999.0,98,-99.99,,,0.00,Acu-Link.com,2013-09-14 07:45:00,
2013-09-14 04:00:00,53.6,53.0,29.74,SSW,202,0.0,-999.0,98,-99.99,,,0.00,Acu-Link.com,2013-09-14 08:00:00,
2013-09-14 04:16:00,53.2,52.6,29.74,SW,225,0.0,-999.0,98,-99.99,,,0.00,Acu-Link.com,2013-09-14 08:16:00,
2013-09-14 04:31:00,52.9,52.4,29.74,SSW,202,0.0,-999.0,98,-99.99,,,0.00,Acu-Link.com,2013-09-14 08:31:00,
2013-09-14 04:46:00,52.2,51.7,29.74,SE,135,0.0,-999.0,98,-99.99,,,0.00,Acu-Link.com,2013-09-14 08:46:00,
2013-09-14 05:01:00,51.6,51.1,29.74,SW,225,0.0,-999.0,98,-99.99,,,0.00,Acu-Link.com,2013-09-14 09:01:00,
2013-09-14 05:17:00,51.1,50.6,29.74,SSE,157,0.0,-999.0,98,-99.99,,,0.00,Acu-Link.com,2013-09-14 09:17:00,
2013-09-14 05:32:00,50.4,49.9,29.75,WSW,247,0.0,-999.0,98,-99.99,,,0.00,Acu-Link.com,2013-09-14 09:32:00,
2013-09-14 05:47:00,50.0,49.5,29.76,NE,45,0.0,-999.0,98,-99.99,,,0.00,Acu-Link.com,2013-09-14 09:47:00,
2013-09-14 06:02:00,49.6,49.1,29.76,NE,45,0.0,-999.0,98,-99.99,,,0.00,Acu-Link.com,2013-09-14 10:02:00,
2013-09-14 06:18:00,49.5,49.0,29.77,SW,225,0.0,-999.0,98,-99.99,,,0.00,Acu-Link.com,2013-09-14 10:18:00,
2013-09-14 06:33:00,49.5,49.0,29.78,NE,45,0.0,-999.0,98,-99.99,,,0.00,Acu-Link.com,2013-09-14 10:33:00,
2013-09-14 06:48:00,49.3,48.8,29.79,NNW,337,0.0,-999.0,98,-99.99,,,0.00,Acu-Link.com,2013-09-14 10:48:00,
2013-09-14 07:04:00,49.1,48.6,29.79,NNE,22,0.0,-999.0,98,-99.99,,,0.00,Acu-Link.com,2013-09-14 11:04:00,
2013-09-14 07:19:00,49.1,48.6,29.80,NNE,22,0.0,-999.0,98,-99.99,,,0.00,Acu-Link.com,2013-09-14 11:19:00,
2013-09-14 07:38:00,49.3,48.8,29.81,NNE,22,0.0,-999.0,98,-99.99,,,0.00,Acu-Link.com,2013-09-14 11:38:00,
2013-09-14 07:53:00,50.4,49.9,29.82,NNE,22,0.0,-999.0,98,-99.99,,,0.00,Acu-Link.com,2013-09-14 11:53:00,
2013-09-14 08:08:00,50.9,50.4,29.83,NE,45,0.0,-999.0,98,-99.99,,,0.00,Acu-Link.com,2013-09-14 12:08:00,
2013-09-14 08:23:00,51.4,50.9,29.83,WNW,292,0.0,-999.0,98,-99.99,,,0.00,Acu-Link.com,2013-09-14 12:23:00,
2013-09-14 08:38:00,52.2,51.7,29.84,NNW,337,0.0,-999.0,98,-99.99,,,0.00,Acu-Link.com,2013-09-14 12:38:00,
2013-09-14 08:54:00,54.0,53.4,29.86,SSW,202,0.0,-999.0,98,-99.99,,,0.00,Acu-Link.com,2013-09-14 12:54:00,
2013-09-14 09:09:00,56.8,56.2,29.86,WNW,292,0.0,-999.0,98,-99.99,,,0.00,Acu-Link.com,2013-09-14 13:09:00,
2013-09-14 09:24:00,58.8,58.2,29.86,SSE,157,0.0,-999.0,98,-99.99,,,0.00,Acu-Link.com,2013-09-14 13:24:00,
2013-09-14 09:39:00,60.6,60.0,29.87,ESE,112,2.7,-999.0,98,-99.99,,,0.00,Acu-Link.com,2013-09-14 13:39:00,
2013-09-14 09:54:00,62.6,62.0,29.87,ENE,67,1.7,-999.0,98,-99.99,,,0.00,Acu-Link.com,2013-09-14 13:54:00,
2013-09-14 10:10:00,64.9,64.3,29.87,SE,135,1.1,-999.0,98,-99.99,,,0.00,Acu-Link.com,2013-09-14 14:10:00,
2013-09-14 10:25:00,65.1,64.5,29.88,WNW,292,4.2,-999.0,98,-99.99,,,0.00,Acu-Link.com,2013-09-14 14:25:00,
2013-09-14 10:40:00,67.3,64.3,29.87,East,90,4.7,-999.0,90,-99.99,,,0.00,Acu-Link.com,2013-09-14 14:40:00,
2013-09-14 10:55:00,68.5,65.4,29.87,South,180,1.7,-999.0,90,-99.99,,,0.00,Acu-Link.com,2013-09-14 14:55:00,
2013-09-14 11:11:00,68.5,64.8,29.87,West,270,2.7,-999.0,88,-99.99,,,0.00,Acu-Link.com,2013-09-14 15:11:00,
2013-09-14 11:26:00,69.6,65.2,29.87,NW,315,1.1,-999.0,86,-99.99,,,0.00,Acu-Link.com,2013-09-14 15:26:00,
2013-09-14 11:41:00,69.6,65.2,29.87,ESE,112,2.7,-999.0,86,-99.99,,,0.00,Acu-Link.com,2013-09-14 15:41:00,
2013-09-14 11:56:00,71.4,67.0,29.87,South,180,2.2,-999.0,86,-99.99,,,0.00,Acu-Link.com,2013-09-14 15:56:00,
2013-09-14 12:11:00,70.0,64.2,29.88,ESE,112,2.7,-999.0,82,-99.99,,,0.00,Acu-Link.com,2013-09-14 16:11:00,
2013-09-14 12:27:00,72.9,68.1,29.87,ENE,67,3.2,-999.0,85,-99.99,,,0.00,Acu-Link.com,2013-09-14 16:27:00,
2013-09-14 12:42:00,73.4,69.3,29.86,SSE,157,4.7,-999.0,87,-99.99,,,0.00,Acu-Link.com,2013-09-14 16:42:00,
2013-09-14 12:57:00,70.3,65.9,29.86,NE,45,1.7,-999.0,86,-99.99,,,0.00,Acu-Link.com,2013-09-14 16:57:00,
2013-09-14 13:12:00,73.0,65.7,29.86,South,180,2.2,-999.0,78,-99.99,,,0.00,Acu-Link.com,2013-09-14 17:12:00,
2013-09-14 13:27:00,73.9,67.7,29.85,WNW,292,2.7,-999.0,81,-99.99,,,0.00,Acu-Link.com,2013-09-14 17:27:00,
2013-09-14 13:43:00,73.6,67.8,29.85,SSE,157,2.7,-999.0,82,-99.99,,,0.00,Acu-Link.com,2013-09-14 17:43:00,
2013-09-14 13:58:00,73.9,67.7,29.85,West,270,1.7,-999.0,81,-99.99,,,0.00,Acu-Link.com,2013-09-14 17:58:00,
2013-09-14 14:13:00,73.4,66.8,29.85,NNE,22,1.1,-999.0,80,-99.99,,,0.00,Acu-Link.com,2013-09-14 18:13:00,
2013-09-14 14:28:00,73.6,67.0,29.85,NNE,22,2.7,-999.0,80,-99.99,,,0.00,Acu-Link.com,2013-09-14 18:28:00,
2013-09-14 14:43:00,74.7,69.5,29.84,SW,225,0.0,-999.0,84,-99.99,,,0.00,Acu-Link.com,2013-09-14 18:43:00,
2013-09-14 14:59:00,75.6,70.4,29.84,SSE,157,2.2,-999.0,84,-99.99,,,0.00,Acu-Link.com,2013-09-14 18:59:00,
2013-09-14 15:14:00,75.2,69.3,29.84,NNW,337,1.7,-999.0,82,-99.99,,,0.00,Acu-Link.com,2013-09-14 19:14:00,
2013-09-14 15:29:00,76.5,70.9,29.83,ENE,67,1.7,-999.0,83,-99.99,,,0.00,Acu-Link.com,2013-09-14 19:29:00,
2013-09-14 15:44:00,75.7,71.9,29.83,ENE,67,1.7,-999.0,88,-99.99,,,0.00,Acu-Link.com,2013-09-14 19:44:00,
2013-09-14 16:00:00,75.4,70.6,29.82,North,0,1.7,-999.0,85,-99.99,,,0.00,Acu-Link.com,2013-09-14 20:00:00,
2013-09-14 16:15:00,76.1,70.9,29.83,NE,45,1.7,-999.0,84,-99.99,,,0.00,Acu-Link.com,2013-09-14 20:15:00,
2013-09-14 16:30:00,76.6,68.8,29.83,SW,225,0.0,-999.0,77,-99.99,,,0.00,Acu-Link.com,2013-09-14 20:30:00,
2013-09-14 16:45:00,74.1,68.9,29.83,NNE,22,4.7,-999.0,84,-99.99,,,0.00,Acu-Link.com,2013-09-14 20:45:00,
2013-09-14 17:00:00,75.0,70.9,29.84,ESE,112,1.7,-999.0,87,-99.99,,,0.00,Acu-Link.com,2013-09-14 21:00:00,
2013-09-14 17:16:00,73.6,69.5,29.84,West,270,2.7,-999.0,87,-99.99,,,0.00,Acu-Link.com,2013-09-14 21:16:00,
2013-09-14 17:31:00,75.2,70.7,29.84,SSE,157,1.7,-999.0,86,-99.99,,,0.00,Acu-Link.com,2013-09-14 21:31:00,
2013-09-14 17:46:00,75.0,69.5,29.85,NW,315,3.2,-999.0,83,-99.99,,,0.00,Acu-Link.com,2013-09-14 21:46:00,
2013-09-14 18:01:00,73.8,69.3,29.85,West,270,3.7,-999.0,86,-99.99,,,0.00,Acu-Link.com,2013-09-14 22:01:00,
2013-09-14 18:16:00,72.3,70.2,29.85,WNW,292,0.0,-999.0,93,-99.99,,,0.00,Acu-Link.com,2013-09-14 22:16:00,
2013-09-14 18:32:00,71.6,70.7,29.85,WNW,292,0.0,-999.0,97,-99.99,,,0.00,Acu-Link.com,2013-09-14 22:32:00,
2013-09-14 18:47:00,70.2,69.3,29.85,ESE,112,0.0,-999.0,97,-99.99,,,0.00,Acu-Link.com,2013-09-14 22:47:00,
2013-09-14 19:02:00,68.2,67.6,29.85,WSW,247,0.0,-999.0,98,-99.99,,,0.00,Acu-Link.com,2013-09-14 23:02:00,
2013-09-14 19:18:00,66.4,65.8,29.86,East,90,0.0,-999.0,98,-99.99,,,0.00,Acu-Link.com,2013-09-14 23:18:00,
2013-09-14 19:33:00,64.9,64.3,29.86,WSW,247,0.0,-999.0,98,-99.99,,,0.00,Acu-Link.com,2013-09-14 23:33:00,
2013-09-14 19:49:00,63.1,62.5,29.87,ESE,112,0.0,-999.0,98,-99.99,,,0.00,Acu-Link.com,2013-09-14 23:49:00,
2013-09-14 20:04:00,62.1,61.5,29.86,ENE,67,0.0,-999.0,98,-99.99,,,0.00,Acu-Link.com,2013-09-15 00:04:00,
2013-09-14 20:19:00,61.2,60.6,29.87,NE,45,0.0,-999.0,98,-99.99,,,0.00,Acu-Link.com,2013-09-15 00:19:00,
2013-09-14 20:34:00,60.4,59.8,29.87,NE,45,0.0,-999.0,98,-99.99,,,0.00,Acu-Link.com,2013-09-15 00:34:00,
2013-09-14 20:49:00,59.2,58.6,29.88,NE,45,0.0,-999.0,98,-99.99,,,0.00,Acu-Link.com,2013-09-15 00:49:00,
2013-09-14 21:05:00,58.3,57.7,29.90,ESE,112,0.0,-999.0,98,-99.99,,,0.00,Acu-Link.com,2013-09-15 01:05:00,
2013-09-14 21:20:00,57.4,56.8,29.89,ESE,112,0.0,-999.0,98,-99.99,,,0.00,Acu-Link.com,2013-09-15 01:20:00,
2013-09-14 21:35:00,57.0,56.4,29.90,South,180,0.0,-999.0,98,-99.99,,,0.00,Acu-Link.com,2013-09-15 01:35:00,
2013-09-14 21:52:00,56.8,56.2,29.90,SSE,157,0.0,-999.0,98,-99.99,,,0.00,Acu-Link.com,2013-09-15 01:52:00,
2013-09-14 22:07:00,56.1,55.5,29.90,ENE,67,0.0,-999.0,98,-99.99,,,0.00,Acu-Link.com,2013-09-15 02:07:00,
2013-09-14 22:22:00,55.4,54.8,29.90,SSE,157,0.0,-999.0,98,-99.99,,,0.00,Acu-Link.com,2013-09-15 02:22:00,
2013-09-14 22:38:00,55.0,54.4,29.91,ENE,67,0.0,-999.0,98,-99.99,,,0.00,Acu-Link.com,2013-09-15 02:38:00,
2013-09-14 22:53:00,54.5,53.9,29.91,West,270,0.0,-999.0,98,-99.99,,,0.00,Acu-Link.com,2013-09-15 02:53:00,
2013-09-14 23:09:00,54.1,53.5,29.92,East,90,0.0,-999.0,98,-99.99,,,0.00,Acu-Link.com,2013-09-15 03:09:00,
2013-09-14 23:24:00,53.4,52.8,29.92,South,180,0.0,-999.0,98,-99.99,,,0.00,Acu-Link.com,2013-09-15 03:24:00,
2013-09-14 23:39:00,52.7,52.2,29.93,ESE,112,0.0,-999.0,98,-99.99,,,0.00,Acu-Link.com,2013-09-15 03:39:00,
2013-09-14 23:54:00,52.3,51.8,29.93,West,270,0.0,-999.0,98,-99.99,,,0.00,Acu-Link.com,2013-09-15 03:54:00,